sensor_id;sensor_type;location;lat;lon;timestamp;temperature;humidity
27940;DHT22;15275;51.716;14.324;2022-07-23T00:00:21;23.50;65.90
27940;DHT22;15275;51.716;14.324;2022-07-23T00:02:47;23.40;65.80
27940;DHT22;15275;51.716;14.324;2022-07-23T00:05:13;23.40;65.70
27940;DHT22;15275;51.716;14.324;2022-07-23T00:07:39;23.40;65.90
27940;DHT22;15275;51.716;14.324;2022-07-23T00:10:05;23.30;65.70
27940;DHT22;15275;51.716;14.324;2022-07-23T00:12:32;23.30;65.70
27940;DHT22;15275;51.716;14.324;2022-07-23T00:14:58;23.30;65.80
27940;DHT22;15275;51.716;14.324;2022-07-23T00:17:24;23.20;65.90
27940;DHT22;15275;51.716;14.324;2022-07-23T00:19:50;23.20;66.00
27940;DHT22;15275;51.716;14.324;2022-07-23T00:22:16;23.10;66.10
27940;DHT22;15275;51.716;14.324;2022-07-23T00:24:42;23.10;66.10
27940;DHT22;15275;51.716;14.324;2022-07-23T00:27:08;23.10;66.10
27940;DHT22;15275;51.716;14.324;2022-07-23T00:29:34;23.10;66.10
27940;DHT22;15275;51.716;14.324;2022-07-23T00:32:00;23.00;66.20
27940;DHT22;15275;51.716;14.324;2022-07-23T00:34:25;23.00;66.30
27940;DHT22;15275;51.716;14.324;2022-07-23T00:36:51;23.00;66.30
27940;DHT22;15275;51.716;14.324;2022-07-23T00:39:19;23.00;66.40
27940;DHT22;15275;51.716;14.324;2022-07-23T00:41:47;23.00;66.40
27940;DHT22;15275;51.716;14.324;2022-07-23T00:44:24;23.00;66.50
27940;DHT22;15275;51.716;14.324;2022-07-23T00:46:54;22.90;66.60
27940;DHT22;15275;51.716;14.324;2022-07-23T00:49:27;22.90;66.60
27940;DHT22;15275;51.716;14.324;2022-07-23T00:51:55;22.90;66.80
27940;DHT22;15275;51.716;14.324;2022-07-23T00:54:24;22.90;66.70
27940;DHT22;15275;51.716;14.324;2022-07-23T00:56:51;22.90;66.80
27940;DHT22;15275;51.716;14.324;2022-07-23T00:59:17;22.90;66.70
27940;DHT22;15275;51.716;14.324;2022-07-23T01:01:43;22.80;66.80
27940;DHT22;15275;51.716;14.324;2022-07-23T01:04:10;22.80;66.80
27940;DHT22;15275;51.716;14.324;2022-07-23T01:06:38;22.80;66.90
27940;DHT22;15275;51.716;14.324;2022-07-23T01:09:05;22.80;67.10
27940;DHT22;15275;51.716;14.324;2022-07-23T01:11:33;22.70;67.20
27940;DHT22;15275;51.716;14.324;2022-07-23T01:14:11;22.70;67.30
27940;DHT22;15275;51.716;14.324;2022-07-23T01:16:39;22.70;67.60
27940;DHT22;15275;51.716;14.324;2022-07-23T01:19:05;22.60;67.20
27940;DHT22;15275;51.716;14.324;2022-07-23T01:21:43;22.60;67.20
27940;DHT22;15275;51.716;14.324;2022-07-23T01:24:12;22.60;67.40
27940;DHT22;15275;51.716;14.324;2022-07-23T01:26:41;22.50;67.30
27940;DHT22;15275;51.716;14.324;2022-07-23T01:29:08;22.50;67.40
27940;DHT22;15275;51.716;14.324;2022-07-23T01:31:34;22.50;67.40
27940;DHT22;15275;51.716;14.324;2022-07-23T01:34:00;22.50;67.50
27940;DHT22;15275;51.716;14.324;2022-07-23T01:36:26;22.40;67.60
27940;DHT22;15275;51.716;14.324;2022-07-23T01:38:52;22.40;67.60
27940;DHT22;15275;51.716;14.324;2022-07-23T01:41:18;22.40;67.80
27940;DHT22;15275;51.716;14.324;2022-07-23T01:43:44;22.40;67.80
27940;DHT22;15275;51.716;14.324;2022-07-23T01:46:10;22.40;67.80
27940;DHT22;15275;51.716;14.324;2022-07-23T01:48:36;22.40;67.90
27940;DHT22;15275;51.716;14.324;2022-07-23T01:51:02;22.30;68.10
27940;DHT22;15275;51.716;14.324;2022-07-23T01:53:28;22.30;68.10
27940;DHT22;15275;51.716;14.324;2022-07-23T01:55:57;22.30;68.20
27940;DHT22;15275;51.716;14.324;2022-07-23T01:58:24;22.30;68.30
27940;DHT22;15275;51.716;14.324;2022-07-23T02:00:51;22.30;68.30
27940;DHT22;15275;51.716;14.324;2022-07-23T02:03:18;22.30;68.50
27940;DHT22;15275;51.716;14.324;2022-07-23T02:05:43;22.30;68.60
27940;DHT22;15275;51.716;14.324;2022-07-23T02:08:09;22.20;68.50
27940;DHT22;15275;51.716;14.324;2022-07-23T02:10:35;22.20;68.50
27940;DHT22;15275;51.716;14.324;2022-07-23T02:13:01;22.20;68.50
27940;DHT22;15275;51.716;14.324;2022-07-23T02:15:27;22.20;68.50
27940;DHT22;15275;51.716;14.324;2022-07-23T02:17:54;22.20;68.60
27940;DHT22;15275;51.716;14.324;2022-07-23T02:20:21;22.10;68.70
27940;DHT22;15275;51.716;14.324;2022-07-23T02:22:47;22.10;68.70
27940;DHT22;15275;51.716;14.324;2022-07-23T02:25:14;22.10;68.80
27940;DHT22;15275;51.716;14.324;2022-07-23T02:27:40;22.10;68.90
27940;DHT22;15275;51.716;14.324;2022-07-23T02:30:07;22.00;69.00
27940;DHT22;15275;51.716;14.324;2022-07-23T02:32:33;22.00;69.10
27940;DHT22;15275;51.716;14.324;2022-07-23T02:35:00;22.00;69.20
27940;DHT22;15275;51.716;14.324;2022-07-23T02:37:27;22.00;69.30
27940;DHT22;15275;51.716;14.324;2022-07-23T02:39:53;22.00;69.40
27940;DHT22;15275;51.716;14.324;2022-07-23T02:42:19;22.00;69.50
27940;DHT22;15275;51.716;14.324;2022-07-23T02:44:45;22.00;69.80
27940;DHT22;15275;51.716;14.324;2022-07-23T02:47:11;22.00;69.80
27940;DHT22;15275;51.716;14.324;2022-07-23T02:49:36;22.00;69.90
27940;DHT22;15275;51.716;14.324;2022-07-23T02:52:03;22.00;69.90
27940;DHT22;15275;51.716;14.324;2022-07-23T02:54:29;22.00;69.90
27940;DHT22;15275;51.716;14.324;2022-07-23T02:56:55;22.00;70.00
27940;DHT22;15275;51.716;14.324;2022-07-23T02:59:20;22.00;70.00
27940;DHT22;15275;51.716;14.324;2022-07-23T03:01:46;22.00;69.90
27940;DHT22;15275;51.716;14.324;2022-07-23T03:04:12;22.00;69.80
27940;DHT22;15275;51.716;14.324;2022-07-23T03:06:39;21.90;69.90
27940;DHT22;15275;51.716;14.324;2022-07-23T03:09:05;21.90;69.90
27940;DHT22;15275;51.716;14.324;2022-07-23T03:11:31;21.90;70.00
27940;DHT22;15275;51.716;14.324;2022-07-23T03:13:57;21.90;70.10
27940;DHT22;15275;51.716;14.324;2022-07-23T03:16:23;21.90;70.20
27940;DHT22;15275;51.716;14.324;2022-07-23T03:18:49;21.90;70.20
27940;DHT22;15275;51.716;14.324;2022-07-23T03:21:14;21.90;70.20
27940;DHT22;15275;51.716;14.324;2022-07-23T03:23:40;21.90;70.30
27940;DHT22;15275;51.716;14.324;2022-07-23T03:26:06;21.90;70.20
27940;DHT22;15275;51.716;14.324;2022-07-23T03:28:32;21.90;70.20
27940;DHT22;15275;51.716;14.324;2022-07-23T03:30:58;22.00;70.30
27940;DHT22;15275;51.716;14.324;2022-07-23T03:33:24;22.00;70.20
27940;DHT22;15275;51.716;14.324;2022-07-23T03:35:50;22.00;70.20
27940;DHT22;15275;51.716;14.324;2022-07-23T03:38:16;22.00;70.20
27940;DHT22;15275;51.716;14.324;2022-07-23T03:40:42;22.00;70.20
27940;DHT22;15275;51.716;14.324;2022-07-23T03:43:08;22.00;70.20
27940;DHT22;15275;51.716;14.324;2022-07-23T03:45:34;22.00;70.20
27940;DHT22;15275;51.716;14.324;2022-07-23T03:48:00;22.00;70.30
27940;DHT22;15275;51.716;14.324;2022-07-23T03:50:26;22.00;70.20
27940;DHT22;15275;51.716;14.324;2022-07-23T03:52:52;22.00;70.50
27940;DHT22;15275;51.716;14.324;2022-07-23T03:55:19;22.00;70.50
27940;DHT22;15275;51.716;14.324;2022-07-23T03:57:45;22.00;70.50
27940;DHT22;15275;51.716;14.324;2022-07-23T04:00:11;22.00;70.60
27940;DHT22;15275;51.716;14.324;2022-07-23T04:02:39;22.00;70.70
27940;DHT22;15275;51.716;14.324;2022-07-23T04:05:05;21.90;70.90
27940;DHT22;15275;51.716;14.324;2022-07-23T04:07:32;21.90;71.10
27940;DHT22;15275;51.716;14.324;2022-07-23T04:09:58;21.90;71.00
27940;DHT22;15275;51.716;14.324;2022-07-23T04:12:24;21.90;71.00
27940;DHT22;15275;51.716;14.324;2022-07-23T04:14:50;21.90;71.30
27940;DHT22;15275;51.716;14.324;2022-07-23T04:17:16;21.90;71.40
27940;DHT22;15275;51.716;14.324;2022-07-23T04:19:42;21.90;71.40
27940;DHT22;15275;51.716;14.324;2022-07-23T04:22:10;22.00;71.40
27940;DHT22;15275;51.716;14.324;2022-07-23T04:24:36;22.00;71.40
27940;DHT22;15275;51.716;14.324;2022-07-23T04:27:03;22.00;71.50
27940;DHT22;15275;51.716;14.324;2022-07-23T04:29:29;22.00;71.70
27940;DHT22;15275;51.716;14.324;2022-07-23T04:31:55;22.00;71.80
27940;DHT22;15275;51.716;14.324;2022-07-23T04:34:21;22.00;71.90
27940;DHT22;15275;51.716;14.324;2022-07-23T04:36:47;21.90;72.10
27940;DHT22;15275;51.716;14.324;2022-07-23T04:39:14;21.90;72.10
27940;DHT22;15275;51.716;14.324;2022-07-23T04:41:40;21.90;72.40
27940;DHT22;15275;51.716;14.324;2022-07-23T04:44:05;21.90;72.60
27940;DHT22;15275;51.716;14.324;2022-07-23T04:46:32;21.90;72.70
27940;DHT22;15275;51.716;14.324;2022-07-23T04:48:58;21.80;72.70
27940;DHT22;15275;51.716;14.324;2022-07-23T04:51:23;21.80;73.00
27940;DHT22;15275;51.716;14.324;2022-07-23T04:53:50;21.70;73.30
27940;DHT22;15275;51.716;14.324;2022-07-23T04:56:16;21.70;73.30
27940;DHT22;15275;51.716;14.324;2022-07-23T04:58:42;21.70;73.30
27940;DHT22;15275;51.716;14.324;2022-07-23T05:01:08;21.70;73.20
27940;DHT22;15275;51.716;14.324;2022-07-23T05:03:34;21.70;73.40
27940;DHT22;15275;51.716;14.324;2022-07-23T05:06:00;21.60;73.70
27940;DHT22;15275;51.716;14.324;2022-07-23T05:08:26;21.60;74.00
27940;DHT22;15275;51.716;14.324;2022-07-23T05:10:52;21.70;73.80
27940;DHT22;15275;51.716;14.324;2022-07-23T05:13:18;21.70;73.80
27940;DHT22;15275;51.716;14.324;2022-07-23T05:15:44;21.70;73.80
27940;DHT22;15275;51.716;14.324;2022-07-23T05:18:10;21.70;73.90
27940;DHT22;15275;51.716;14.324;2022-07-23T05:20:36;21.70;74.00
27940;DHT22;15275;51.716;14.324;2022-07-23T05:23:02;21.80;74.00
27940;DHT22;15275;51.716;14.324;2022-07-23T05:25:28;21.80;74.10
27940;DHT22;15275;51.716;14.324;2022-07-23T05:27:54;21.80;74.20
27940;DHT22;15275;51.716;14.324;2022-07-23T05:30:21;21.90;74.00
27940;DHT22;15275;51.716;14.324;2022-07-23T05:32:46;21.90;74.00
27940;DHT22;15275;51.716;14.324;2022-07-23T05:35:12;21.90;73.80
27940;DHT22;15275;51.716;14.324;2022-07-23T05:37:38;21.90;73.80
27940;DHT22;15275;51.716;14.324;2022-07-23T05:40:06;21.90;73.70
27940;DHT22;15275;51.716;14.324;2022-07-23T05:42:35;21.90;73.60
27940;DHT22;15275;51.716;14.324;2022-07-23T05:45:02;21.80;73.50
27940;DHT22;15275;51.716;14.324;2022-07-23T05:47:29;21.80;73.50
27940;DHT22;15275;51.716;14.324;2022-07-23T05:50:14;21.70;73.60
27940;DHT22;15275;51.716;14.324;2022-07-23T05:52:42;21.70;73.70
27940;DHT22;15275;51.716;14.324;2022-07-23T05:55:09;21.70;73.80
27940;DHT22;15275;51.716;14.324;2022-07-23T05:57:36;21.60;74.00
27940;DHT22;15275;51.716;14.324;2022-07-23T06:00:04;21.60;74.10
27940;DHT22;15275;51.716;14.324;2022-07-23T06:02:31;21.70;74.30
27940;DHT22;15275;51.716;14.324;2022-07-23T06:04:57;21.70;74.30
27940;DHT22;15275;51.716;14.324;2022-07-23T06:07:22;21.70;74.30
27940;DHT22;15275;51.716;14.324;2022-07-23T06:09:48;21.70;74.40
27940;DHT22;15275;51.716;14.324;2022-07-23T06:12:15;21.70;74.30
27940;DHT22;15275;51.716;14.324;2022-07-23T06:14:42;21.70;74.40
27940;DHT22;15275;51.716;14.324;2022-07-23T06:17:08;21.80;74.50
27940;DHT22;15275;51.716;14.324;2022-07-23T06:19:34;21.80;74.60
27940;DHT22;15275;51.716;14.324;2022-07-23T06:22:00;21.80;74.60
27940;DHT22;15275;51.716;14.324;2022-07-23T06:24:26;21.80;74.60
27940;DHT22;15275;51.716;14.324;2022-07-23T06:26:52;21.90;74.40
27940;DHT22;15275;51.716;14.324;2022-07-23T06:29:18;21.90;74.50
27940;DHT22;15275;51.716;14.324;2022-07-23T06:31:43;21.90;74.40
27940;DHT22;15275;51.716;14.324;2022-07-23T06:34:09;21.90;74.50
27940;DHT22;15275;51.716;14.324;2022-07-23T06:36:35;22.00;74.50
27940;DHT22;15275;51.716;14.324;2022-07-23T06:39:01;22.00;74.30
27940;DHT22;15275;51.716;14.324;2022-07-23T06:41:28;22.00;74.20
27940;DHT22;15275;51.716;14.324;2022-07-23T06:43:53;22.00;74.10
27940;DHT22;15275;51.716;14.324;2022-07-23T06:46:19;22.00;74.00
27940;DHT22;15275;51.716;14.324;2022-07-23T06:48:46;22.10;73.90
27940;DHT22;15275;51.716;14.324;2022-07-23T06:51:12;22.10;73.80
27940;DHT22;15275;51.716;14.324;2022-07-23T06:53:38;22.10;73.70
27940;DHT22;15275;51.716;14.324;2022-07-23T07:04:03;22.10;73.30
27940;DHT22;15275;51.716;14.324;2022-07-23T07:06:29;22.10;73.20
27940;DHT22;15275;51.716;14.324;2022-07-23T07:08:55;22.20;73.40
27940;DHT22;15275;51.716;14.324;2022-07-23T07:11:21;22.20;73.40
27940;DHT22;15275;51.716;14.324;2022-07-23T07:13:49;22.20;73.50
27940;DHT22;15275;51.716;14.324;2022-07-23T07:16:15;22.20;73.60
27940;DHT22;15275;51.716;14.324;2022-07-23T07:18:41;22.30;73.70
27940;DHT22;15275;51.716;14.324;2022-07-23T07:21:08;22.30;73.70
27940;DHT22;15275;51.716;14.324;2022-07-23T07:23:34;22.40;73.20
27940;DHT22;15275;51.716;14.324;2022-07-23T07:26:00;22.50;73.00
27940;DHT22;15275;51.716;14.324;2022-07-23T07:28:26;22.50;73.00
27940;DHT22;15275;51.716;14.324;2022-07-23T07:30:52;22.60;73.20
27940;DHT22;15275;51.716;14.324;2022-07-23T07:33:18;22.70;73.30
27940;DHT22;15275;51.716;14.324;2022-07-23T07:35:44;22.80;73.00
27940;DHT22;15275;51.716;14.324;2022-07-23T07:38:10;22.90;72.70
27940;DHT22;15275;51.716;14.324;2022-07-23T07:40:36;23.00;72.40
27940;DHT22;15275;51.716;14.324;2022-07-23T07:43:02;23.00;72.50
27940;DHT22;15275;51.716;14.324;2022-07-23T07:45:28;23.10;72.20
27940;DHT22;15275;51.716;14.324;2022-07-23T07:47:54;23.20;71.80
27940;DHT22;15275;51.716;14.324;2022-07-23T07:50:21;23.30;71.60
27940;DHT22;15275;51.716;14.324;2022-07-23T07:52:47;23.40;71.30
27940;DHT22;15275;51.716;14.324;2022-07-23T07:55:13;23.40;71.10
27940;DHT22;15275;51.716;14.324;2022-07-23T07:57:39;23.50;71.00
27940;DHT22;15275;51.716;14.324;2022-07-23T08:00:07;23.60;70.80
27940;DHT22;15275;51.716;14.324;2022-07-23T08:02:49;23.60;70.60
27940;DHT22;15275;51.716;14.324;2022-07-23T08:05:24;23.70;70.00
27940;DHT22;15275;51.716;14.324;2022-07-23T08:07:51;23.80;69.80
27940;DHT22;15275;51.716;14.324;2022-07-23T08:10:18;23.80;69.90
27940;DHT22;15275;51.716;14.324;2022-07-23T08:12:46;23.90;69.60
27940;DHT22;15275;51.716;14.324;2022-07-23T08:15:15;24.00;69.60
27940;DHT22;15275;51.716;14.324;2022-07-23T08:17:43;24.10;69.40
27940;DHT22;15275;51.716;14.324;2022-07-23T08:20:11;24.20;69.20
27940;DHT22;15275;51.716;14.324;2022-07-23T08:23:04;24.30;68.90
27940;DHT22;15275;51.716;14.324;2022-07-23T08:25:42;24.40;67.50
27940;DHT22;15275;51.716;14.324;2022-07-23T08:28:10;24.60;67.90
27940;DHT22;15275;51.716;14.324;2022-07-23T08:30:38;24.70;68.30
27940;DHT22;15275;51.716;14.324;2022-07-23T08:33:06;24.80;68.00
27940;DHT22;15275;51.716;14.324;2022-07-23T08:35:46;24.90;68.10
27940;DHT22;15275;51.716;14.324;2022-07-23T08:38:15;25.10;67.60
27940;DHT22;15275;51.716;14.324;2022-07-23T08:40:45;25.20;67.10
27940;DHT22;15275;51.716;14.324;2022-07-23T08:43:14;25.30;66.80
27940;DHT22;15275;51.716;14.324;2022-07-23T08:45:47;25.50;66.50
27940;DHT22;15275;51.716;14.324;2022-07-23T08:48:22;25.50;66.20
27940;DHT22;15275;51.716;14.324;2022-07-23T08:50:52;25.60;65.90
27940;DHT22;15275;51.716;14.324;2022-07-23T08:53:21;25.60;65.40
27940;DHT22;15275;51.716;14.324;2022-07-23T08:55:49;25.70;65.40
27940;DHT22;15275;51.716;14.324;2022-07-23T08:58:17;25.70;65.50
27940;DHT22;15275;51.716;14.324;2022-07-23T09:00:44;25.80;65.10
27940;DHT22;15275;51.716;14.324;2022-07-23T09:03:23;25.80;64.90
27940;DHT22;15275;51.716;14.324;2022-07-23T09:06:01;25.90;64.40
27940;DHT22;15275;51.716;14.324;2022-07-23T09:08:44;25.90;65.00
27940;DHT22;15275;51.716;14.324;2022-07-23T09:11:15;25.90;64.20
27940;DHT22;15275;51.716;14.324;2022-07-23T09:16:17;26.10;64.40
27940;DHT22;15275;51.716;14.324;2022-07-23T09:19:00;26.10;63.90
27940;DHT22;15275;51.716;14.324;2022-07-23T09:26:39;26.30;64.10
27940;DHT22;15275;51.716;14.324;2022-07-23T09:29:22;26.40;63.70
27940;DHT22;15275;51.716;14.324;2022-07-23T09:34:32;26.60;63.70
27940;DHT22;15275;51.716;14.324;2022-07-23T09:37:17;26.60;63.70
27940;DHT22;15275;51.716;14.324;2022-07-23T09:39:47;26.70;63.30
27940;DHT22;15275;51.716;14.324;2022-07-23T09:42:24;26.80;63.50
27940;DHT22;15275;51.716;14.324;2022-07-23T09:44:53;26.90;63.20
27940;DHT22;15275;51.716;14.324;2022-07-23T09:47:22;26.90;63.40
27940;DHT22;15275;51.716;14.324;2022-07-23T09:52:52;27.00;63.30
27940;DHT22;15275;51.716;14.324;2022-07-23T09:55:18;27.10;63.70
27940;DHT22;15275;51.716;14.324;2022-07-23T09:57:45;27.10;63.50
27940;DHT22;15275;51.716;14.324;2022-07-23T10:00:22;27.20;63.40
27940;DHT22;15275;51.716;14.324;2022-07-23T10:02:49;27.30;63.30
27940;DHT22;15275;51.716;14.324;2022-07-23T10:05:16;27.30;63.00
27940;DHT22;15275;51.716;14.324;2022-07-23T10:07:42;27.30;62.80
27940;DHT22;15275;51.716;14.324;2022-07-23T10:10:10;27.40;62.80
27940;DHT22;15275;51.716;14.324;2022-07-23T10:12:36;27.40;62.80
27940;DHT22;15275;51.716;14.324;2022-07-23T10:15:11;27.40;62.90
27940;DHT22;15275;51.716;14.324;2022-07-23T10:17:37;27.40;63.30
27940;DHT22;15275;51.716;14.324;2022-07-23T10:20:04;27.50;63.00
27940;DHT22;15275;51.716;14.324;2022-07-23T10:22:37;27.60;62.60
27940;DHT22;15275;51.716;14.324;2022-07-23T10:31:02;27.70;62.10
27940;DHT22;15275;51.716;14.324;2022-07-23T10:33:56;27.80;62.10
27940;DHT22;15275;51.716;14.324;2022-07-23T10:36:57;27.80;62.20
27940;DHT22;15275;51.716;14.324;2022-07-23T10:39:32;27.80;62.10
27940;DHT22;15275;51.716;14.324;2022-07-23T10:42:13;27.90;61.90
27940;DHT22;15275;51.716;14.324;2022-07-23T10:44:46;27.80;61.70
27940;DHT22;15275;51.716;14.324;2022-07-23T10:47:25;27.80;61.80
27940;DHT22;15275;51.716;14.324;2022-07-23T10:50:27;27.80;61.60
27940;DHT22;15275;51.716;14.324;2022-07-23T10:57:57;27.90;62.10
27940;DHT22;15275;51.716;14.324;2022-07-23T11:00:29;27.90;61.80
27940;DHT22;15275;51.716;14.324;2022-07-23T11:03:01;27.90;61.30
27940;DHT22;15275;51.716;14.324;2022-07-23T11:05:45;27.90;61.50
27940;DHT22;15275;51.716;14.324;2022-07-23T11:24:00;27.90;61.00
27940;DHT22;15275;51.716;14.324;2022-07-23T11:34:46;27.80;61.10
27940;DHT22;15275;51.716;14.324;2022-07-23T11:37:49;27.80;61.20
27940;DHT22;15275;51.716;14.324;2022-07-23T11:40:19;27.70;61.20
27940;DHT22;15275;51.716;14.324;2022-07-23T11:43:00;27.70;61.20
27940;DHT22;15275;51.716;14.324;2022-07-23T11:45:34;27.70;61.30
27940;DHT22;15275;51.716;14.324;2022-07-23T11:48:03;27.70;61.30
27940;DHT22;15275;51.716;14.324;2022-07-23T11:50:32;27.70;61.60
27940;DHT22;15275;51.716;14.324;2022-07-23T11:52:58;27.70;60.80
27940;DHT22;15275;51.716;14.324;2022-07-23T11:55:24;27.70;60.80
27940;DHT22;15275;51.716;14.324;2022-07-23T11:57:52;27.60;60.90
27940;DHT22;15275;51.716;14.324;2022-07-23T12:00:24;27.50;60.80
27940;DHT22;15275;51.716;14.324;2022-07-23T12:02:54;27.50;60.70
27940;DHT22;15275;51.716;14.324;2022-07-23T12:05:33;27.40;60.80
27940;DHT22;15275;51.716;14.324;2022-07-23T12:08:02;27.40;60.80
27940;DHT22;15275;51.716;14.324;2022-07-23T12:10:42;27.30;61.00
27940;DHT22;15275;51.716;14.324;2022-07-23T12:13:11;27.20;61.10
27940;DHT22;15275;51.716;14.324;2022-07-23T12:15:44;27.20;61.20
27940;DHT22;15275;51.716;14.324;2022-07-23T12:18:13;27.10;61.10
27940;DHT22;15275;51.716;14.324;2022-07-23T12:20:46;27.10;61.20
27940;DHT22;15275;51.716;14.324;2022-07-23T12:23:15;27.10;61.10
27940;DHT22;15275;51.716;14.324;2022-07-23T12:25:44;27.00;61.40
27940;DHT22;15275;51.716;14.324;2022-07-23T12:28:12;27.00;61.50
27940;DHT22;15275;51.716;14.324;2022-07-23T12:30:54;27.00;61.60
27940;DHT22;15275;51.716;14.324;2022-07-23T12:33:27;27.00;61.50
27940;DHT22;15275;51.716;14.324;2022-07-23T12:35:54;27.00;61.40
27940;DHT22;15275;51.716;14.324;2022-07-23T12:38:23;27.00;61.50
27940;DHT22;15275;51.716;14.324;2022-07-23T12:40:58;27.00;61.40
27940;DHT22;15275;51.716;14.324;2022-07-23T12:43:33;27.00;61.30
27940;DHT22;15275;51.716;14.324;2022-07-23T12:46:16;26.90;61.30
27940;DHT22;15275;51.716;14.324;2022-07-23T12:51:15;26.90;61.30
27940;DHT22;15275;51.716;14.324;2022-07-23T12:53:48;26.80;61.30
27940;DHT22;15275;51.716;14.324;2022-07-23T12:56:33;26.70;61.50
27940;DHT22;15275;51.716;14.324;2022-07-23T13:01:31;26.50;62.00
27940;DHT22;15275;51.716;14.324;2022-07-23T13:04:23;26.40;62.00
27940;DHT22;15275;51.716;14.324;2022-07-23T13:06:52;26.40;61.90
27940;DHT22;15275;51.716;14.324;2022-07-23T13:09:22;26.30;62.00
27940;DHT22;15275;51.716;14.324;2022-07-23T13:11:50;26.20;62.20
27940;DHT22;15275;51.716;14.324;2022-07-23T13:14:18;26.20;62.30
27940;DHT22;15275;51.716;14.324;2022-07-23T13:16:46;26.10;62.30
27940;DHT22;15275;51.716;14.324;2022-07-23T13:19:12;26.10;62.40
27940;DHT22;15275;51.716;14.324;2022-07-23T13:21:40;26.10;62.40
27940;DHT22;15275;51.716;14.324;2022-07-23T13:24:09;26.10;62.60
27940;DHT22;15275;51.716;14.324;2022-07-23T13:26:36;26.20;62.90
27940;DHT22;15275;51.716;14.324;2022-07-23T13:29:03;26.20;63.00
27940;DHT22;15275;51.716;14.324;2022-07-23T13:31:30;26.40;62.90
27940;DHT22;15275;51.716;14.324;2022-07-23T13:33:55;26.50;62.70
27940;DHT22;15275;51.716;14.324;2022-07-23T13:36:21;26.60;62.40
27940;DHT22;15275;51.716;14.324;2022-07-23T13:38:47;26.80;62.30
27940;DHT22;15275;51.716;14.324;2022-07-23T13:41:13;26.90;61.80
27940;DHT22;15275;51.716;14.324;2022-07-23T13:43:41;27.10;61.60
27940;DHT22;15275;51.716;14.324;2022-07-23T13:46:07;27.20;61.30
27940;DHT22;15275;51.716;14.324;2022-07-23T13:48:33;27.40;60.40
27940;DHT22;15275;51.716;14.324;2022-07-23T13:50:59;27.50;60.00
27940;DHT22;15275;51.716;14.324;2022-07-23T13:53:25;27.60;59.50
27940;DHT22;15275;51.716;14.324;2022-07-23T13:55:52;27.60;59.20
27940;DHT22;15275;51.716;14.324;2022-07-23T13:58:21;27.70;58.60
27940;DHT22;15275;51.716;14.324;2022-07-23T14:00:50;27.70;58.40
27940;DHT22;15275;51.716;14.324;2022-07-23T14:03:17;27.70;57.70
27940;DHT22;15275;51.716;14.324;2022-07-23T14:05:44;27.70;57.70
27940;DHT22;15275;51.716;14.324;2022-07-23T14:08:10;27.70;57.40
27940;DHT22;15275;51.716;14.324;2022-07-23T14:10:36;27.70;57.50
27940;DHT22;15275;51.716;14.324;2022-07-23T14:13:02;27.70;57.20
27940;DHT22;15275;51.716;14.324;2022-07-23T14:15:30;27.80;57.10
27940;DHT22;15275;51.716;14.324;2022-07-23T14:17:57;27.80;57.30
27940;DHT22;15275;51.716;14.324;2022-07-23T14:20:24;27.80;57.30
27940;DHT22;15275;51.716;14.324;2022-07-23T14:22:51;27.80;57.20
27940;DHT22;15275;51.716;14.324;2022-07-23T14:25:17;27.80;57.40
27940;DHT22;15275;51.716;14.324;2022-07-23T14:27:43;27.80;57.50
27940;DHT22;15275;51.716;14.324;2022-07-23T14:30:11;27.80;57.40
27940;DHT22;15275;51.716;14.324;2022-07-23T14:32:37;27.90;57.10
27940;DHT22;15275;51.716;14.324;2022-07-23T14:35:05;27.90;56.80
27940;DHT22;15275;51.716;14.324;2022-07-23T14:37:32;27.90;56.80
27940;DHT22;15275;51.716;14.324;2022-07-23T14:39:58;27.90;56.90
27940;DHT22;15275;51.716;14.324;2022-07-23T14:42:25;27.90;56.50
27940;DHT22;15275;51.716;14.324;2022-07-23T14:44:51;27.90;56.30
27940;DHT22;15275;51.716;14.324;2022-07-23T14:47:17;27.90;56.30
27940;DHT22;15275;51.716;14.324;2022-07-23T14:49:43;27.90;55.90
27940;DHT22;15275;51.716;14.324;2022-07-23T14:52:09;27.90;55.50
27940;DHT22;15275;51.716;14.324;2022-07-23T14:54:35;27.90;55.50
27940;DHT22;15275;51.716;14.324;2022-07-23T14:57:03;27.90;55.40
27940;DHT22;15275;51.716;14.324;2022-07-23T14:59:29;27.90;54.90
27940;DHT22;15275;51.716;14.324;2022-07-23T15:01:56;27.90;55.10
27940;DHT22;15275;51.716;14.324;2022-07-23T15:04:23;27.90;55.00
27940;DHT22;15275;51.716;14.324;2022-07-23T15:06:50;27.90;54.90
27940;DHT22;15275;51.716;14.324;2022-07-23T15:09:16;27.90;55.10
27940;DHT22;15275;51.716;14.324;2022-07-23T15:11:42;27.90;55.00
27940;DHT22;15275;51.716;14.324;2022-07-23T15:14:09;27.90;54.70
27940;DHT22;15275;51.716;14.324;2022-07-23T15:16:35;27.90;54.60
27940;DHT22;15275;51.716;14.324;2022-07-23T15:19:02;28.00;54.50
27940;DHT22;15275;51.716;14.324;2022-07-23T15:21:29;28.00;54.40
27940;DHT22;15275;51.716;14.324;2022-07-23T15:23:56;28.00;54.20
27940;DHT22;15275;51.716;14.324;2022-07-23T15:26:29;28.00;54.30
27940;DHT22;15275;51.716;14.324;2022-07-23T15:28:56;28.00;54.50
27940;DHT22;15275;51.716;14.324;2022-07-23T15:31:24;28.00;54.80
27940;DHT22;15275;51.716;14.324;2022-07-23T15:33:50;28.00;54.60
27940;DHT22;15275;51.716;14.324;2022-07-23T15:36:20;28.10;54.20
27940;DHT22;15275;51.716;14.324;2022-07-23T15:38:47;28.10;54.20
27940;DHT22;15275;51.716;14.324;2022-07-23T15:41:13;28.10;54.40
27940;DHT22;15275;51.716;14.324;2022-07-23T15:43:39;28.20;54.30
27940;DHT22;15275;51.716;14.324;2022-07-23T15:46:05;28.20;54.40
27940;DHT22;15275;51.716;14.324;2022-07-23T15:48:35;28.30;54.40
27940;DHT22;15275;51.716;14.324;2022-07-23T15:51:02;28.40;54.20
27940;DHT22;15275;51.716;14.324;2022-07-23T15:53:28;28.40;54.00
27940;DHT22;15275;51.716;14.324;2022-07-23T15:55:54;28.50;53.80
27940;DHT22;15275;51.716;14.324;2022-07-23T15:58:21;28.50;53.60
27940;DHT22;15275;51.716;14.324;2022-07-23T16:00:46;28.50;53.80
27940;DHT22;15275;51.716;14.324;2022-07-23T16:03:13;28.50;53.70
27940;DHT22;15275;51.716;14.324;2022-07-23T16:05:41;28.40;53.70
27940;DHT22;15275;51.716;14.324;2022-07-23T16:08:07;28.40;53.80
27940;DHT22;15275;51.716;14.324;2022-07-23T16:10:33;28.50;53.80
27940;DHT22;15275;51.716;14.324;2022-07-23T16:12:59;28.50;53.90
27940;DHT22;15275;51.716;14.324;2022-07-23T16:15:25;28.50;53.60
27940;DHT22;15275;51.716;14.324;2022-07-23T16:17:51;28.60;53.50
27940;DHT22;15275;51.716;14.324;2022-07-23T16:20:23;28.60;53.50
27940;DHT22;15275;51.716;14.324;2022-07-23T16:22:49;28.60;53.20